EST,Max TemperatureF,Mean TemperatureF,Min TemperatureF,Max Dew PointF,MeanDew PointF,Min DewpointF,Max Humidity, Mean Humidity, Min Humidity, Max Sea Level PressureIn, Mean Sea Level PressureIn, Min Sea Level PressureIn, Max VisibilityMiles, Mean VisibilityMiles, Min VisibilityMiles, Max Wind SpeedMPH, Mean Wind SpeedMPH, Max Gust SpeedMPH,PrecipitationIn, CloudCover, Events, WindDirDegrees
2013-12-1,57,39,20,30,25,18,96,64,32,30.36,30.18,30.03,10,10,8,8,2,10,0.00,0,,233
2013-12-2,58,43,27,36,31,24,92,66,39,30.01,29.90,29.84,10,10,7,6,1,10,0.00,4,,118
2013-12-3,60,46,32,46,40,30,92,75,57,30.00,29.93,29.87,10,9,4,6,1,7,0.01,5,Rain,187
2013-12-4,59,54,48,55,50,46,100,90,80,30.09,30.03,29.97,10,5,1,6,0,9,0.11,8,Rain,183
2013-12-5,68,62,56,63,59,55,100,88,76,30.11,30.05,29.99,10,5,0,14,5,20,0.10,8,Fog-Rain,205
2013-12-6,78,66,53,63,61,48,87,71,54,30.03,29.97,29.91,10,10,10,26,10,35,T,6,Rain,210
2013-12-7,53,47,40,48,40,30,89,77,65,30.48,30.25,30.03,10,9,2,17,9,21,0.21,8,Rain-Thunderstorm,43
2013-12-8,40,36,32,31,29,25,89,74,59,30.49,30.41,30.30,10,7,2,14,7,20,0.06,8,Rain,43
2013-12-9,44,39,33,42,35,30,96,93,89,30.27,30.14,30.05,10,6,0,8,3,10,0.02,7,Fog-Rain,228
2013-12-10,50,40,29,40,36,18,100,76,52,30.30,30.05,29.95,10,7,0,20,5,28,0.03,6,Fog-Rain,349
2013-12-11,49,37,25,23,20,18,88,60,31,30.44,30.34,30.28,10,10,10,10,4,14,0.00,0,,235
2013-12-12,43,34,24,23,17,11,72,51,29,30.43,30.35,30.29,10,10,10,14,5,18,0.00,0,,318
2013-12-13,50,36,22,25,18,14,77,52,27,30.38,30.31,30.25,10,10,10,14,4,16,0.00,0,,229
2013-12-14,40,38,36,36,33,25,92,76,59,30.28,30.04,29.78,10,7,1,13,4,17,0.77,7,Rain,35
2013-12-15,50,40,30,38,31,24,92,69,46,30.06,29.87,29.69,10,9,3,20,7,28,0.00,3,,272
2013-12-16,51,39,27,31,28,23,85,64,42,30.17,30.10,30.04,10,10,10,9,3,,0.00,0,,233
2013-12-17,63,46,29,39,33,27,92,63,34,30.10,30.00,29.85,10,10,8,22,5,29,0.06,2,Rain-Thunderstorm,253
2013-12-18,48,38,28,29,20,18,70,52,34,30.27,30.20,30.03,10,10,10,15,7,21,0.00,0,,259
2013-12-19,64,46,28,26,22,18,69,45,20,30.29,30.23,30.18,10,10,10,20,6,26,0.00,0,,213
2013-12-20,67,53,39,47,37,26,74,56,37,30.21,30.15,30.08,10,10,10,20,7,26,0.00,0,,214
2013-12-21,73,60,47,62,53,45,93,77,61,30.12,30.05,29.97,10,10,9,21,7,31,0.00,2,,213
2013-12-22,72,67,62,67,62,60,93,86,78,30.07,30.01,29.95,10,7,0,22,7,29,1.32,7,Fog-Rain,215
2013-12-23,65,54,42,63,54,29,93,77,60,30.18,30.04,29.96,10,9,3,17,8,23,0.76,8,Rain,264
2013-12-24,45,37,28,29,21,11,69,53,36,30.47,30.30,30.18,10,10,10,20,10,28,0.00,2,,331
2013-12-25,38,28,17,16,12,8,80,55,29,30.56,30.47,30.39,10,10,10,9,2,12,0.00,0,,36
2013-12-26,51,35,18,25,19,14,84,58,32,30.37,30.32,30.24,10,10,8,12,4,15,0.00,0,,280
2013-12-27,52,38,24,23,20,18,81,54,26,30.46,30.40,30.36,10,10,10,8,2,12,0.00,0,,226
2013-12-28,60,42,24,40,26,20,89,56,23,30.39,30.31,30.18,10,10,7,13,3,16,0.11,2,Rain,224
2013-12-29,54,47,39,47,41,36,96,81,66,30.11,29.85,29.70,10,7,2,14,5,17,0.99,6,Rain,303
2013-12-30,52,43,33,39,34,29,96,76,56,30.14,30.05,29.92,10,10,7,12,5,14,0.00,3,,297
2013-12-31,50,40,29,32,25,17,92,62,32,30.35,30.23,30.12,10,10,10,21,5,28,T,2,,269